Airport View

Enter AWOS ICAO identifier for current METAR.

ex. KFNL

KETC 290335Z AUTO 00000KT 10SM CLR 21/20 A2992 RMK AO2 T02150200

29 Sep 2020 03:36

Frequency: 119.575

Phone: 252-641-1640

Other Area AWOS: KRWI - KPGV - KIXA - KASJ

TAF KRWI 282339Z 2900/2924 17004KT P6SM FEW020 OVC250 TEMPO 2900/2904 3SM -SHRA SCT004 BKN012 FM290700 19004KT 3SM BR VCSH SCT003 BKN010 FM291600 17010KT P6SM VCSH BKN015